Terminal Aerodrome Forecast
Issued by NWS Missoula, MT

Home | Current Version | Previous Version | Text Only | Print | Product List | Glossary On
Versions: 1 2 3 4 5 6 7 8 9 10 11 12 13 14 15 16 17 18
000
FTUS45 KMSO 211726
TAFGPI
TAF
KGPI 211726Z 2118/2218 20010KT P6SM VCSH BKN040 OVC070
     FM212200 25010KT P6SM VCSH BKN050
     FM220400 18005KT P6SM OVC040=

USA.gov is the U.S. government's official web portal to all federal, state and local government web resources and services.